sensor_id;sensor_type;location;lat;lon;timestamp;pressure;altitude;pressure_sealevel;temperature;humidity
28927;BME280;16038;47.692;9.400;2023-04-25T00:00:23;96091.41;;;8.71;91.37
28927;BME280;16038;47.692;9.400;2023-04-25T00:02:50;96093.72;;;8.69;92.05
28927;BME280;16038;47.692;9.400;2023-04-25T00:05:15;96084.22;;;8.59;92.80
28927;BME280;16038;47.692;9.400;2023-04-25T00:07:41;96084.13;;;8.52;92.58
28927;BME280;16038;47.692;9.400;2023-04-25T00:10:08;96086.16;;;8.58;92.72
28927;BME280;16038;47.692;9.400;2023-04-25T00:12:33;96086.09;;;8.55;92.91
28927;BME280;16038;47.692;9.400;2023-04-25T00:14:58;96085.00;;;8.59;91.95
28927;BME280;16038;47.692;9.400;2023-04-25T00:17:25;96088.47;;;8.56;92.10
28927;BME280;16038;47.692;9.400;2023-04-25T00:19:50;96089.63;;;8.55;90.94
28927;BME280;16038;47.692;9.400;2023-04-25T00:22:16;96093.25;;;8.40;91.25
28927;BME280;16038;47.692;9.400;2023-04-25T00:24:41;96088.78;;;8.28;91.79
28927;BME280;16038;47.692;9.400;2023-04-25T00:27:06;96095.00;;;8.25;91.42
28927;BME280;16038;47.692;9.400;2023-04-25T00:29:32;96090.78;;;8.31;91.30
28927;BME280;16038;47.692;9.400;2023-04-25T00:31:57;96085.22;;;8.24;90.38
28927;BME280;16038;47.692;9.400;2023-04-25T00:34:22;96079.78;;;8.24;91.36
28927;BME280;16038;47.692;9.400;2023-04-25T00:36:47;96084.44;;;8.23;91.29
28927;BME280;16038;47.692;9.400;2023-04-25T00:39:12;96075.44;;;8.19;90.92
28927;BME280;16038;47.692;9.400;2023-04-25T00:41:38;96078.94;;;8.20;92.67
28927;BME280;16038;47.692;9.400;2023-04-25T00:44:03;96074.56;;;8.15;91.63
28927;BME280;16038;47.692;9.400;2023-04-25T00:46:29;96074.16;;;8.13;92.24
28927;BME280;16038;47.692;9.400;2023-04-25T00:48:55;96071.13;;;8.18;91.59
28927;BME280;16038;47.692;9.400;2023-04-25T00:51:20;96066.81;;;8.17;91.54
28927;BME280;16038;47.692;9.400;2023-04-25T00:53:46;96071.84;;;8.15;91.95
28927;BME280;16038;47.692;9.400;2023-04-25T00:56:12;96073.38;;;8.13;91.73
28927;BME280;16038;47.692;9.400;2023-04-25T00:58:37;96071.72;;;8.08;91.69
28927;BME280;16038;47.692;9.400;2023-04-25T01:01:03;96067.97;;;8.16;91.06
28927;BME280;16038;47.692;9.400;2023-04-25T01:03:29;96069.06;;;8.12;90.51
28927;BME280;16038;47.692;9.400;2023-04-25T01:05:56;96063.59;;;8.12;91.64
28927;BME280;16038;47.692;9.400;2023-04-25T01:08:23;96062.75;;;8.08;91.40
28927;BME280;16038;47.692;9.400;2023-04-25T01:10:48;96074.41;;;8.31;90.93
28927;BME280;16038;47.692;9.400;2023-04-25T01:13:14;96068.78;;;8.44;90.39
28927;BME280;16038;47.692;9.400;2023-04-25T01:15:39;96062.66;;;8.50;89.27
28927;BME280;16038;47.692;9.400;2023-04-25T01:18:05;96045.81;;;8.45;89.00
28927;BME280;16038;47.692;9.400;2023-04-25T01:20:31;96050.88;;;8.46;89.58
28927;BME280;16038;47.692;9.400;2023-04-25T01:22:56;96052.09;;;8.49;89.24
28927;BME280;16038;47.692;9.400;2023-04-25T01:25:22;96050.81;;;8.42;89.04
28927;BME280;16038;47.692;9.400;2023-04-25T01:27:47;96060.16;;;8.41;90.22
28927;BME280;16038;47.692;9.400;2023-04-25T01:30:13;96054.00;;;8.45;90.09
28927;BME280;16038;47.692;9.400;2023-04-25T01:32:38;96044.09;;;8.36;89.67
28927;BME280;16038;47.692;9.400;2023-04-25T01:35:05;96046.41;;;8.34;89.58
28927;BME280;16038;47.692;9.400;2023-04-25T01:37:40;96044.81;;;8.33;89.63
28927;BME280;16038;47.692;9.400;2023-04-25T01:40:06;96063.59;;;8.12;88.29
28927;BME280;16038;47.692;9.400;2023-04-25T01:42:32;96054.84;;;8.26;87.26
28927;BME280;16038;47.692;9.400;2023-04-25T01:44:58;96068.13;;;8.27;86.16
28927;BME280;16038;47.692;9.400;2023-04-25T01:47:23;96062.22;;;8.21;87.13
28927;BME280;16038;47.692;9.400;2023-04-25T01:49:49;96064.81;;;8.14;88.34
28927;BME280;16038;47.692;9.400;2023-04-25T01:52:14;96067.91;;;8.13;88.44
28927;BME280;16038;47.692;9.400;2023-04-25T01:54:40;96064.41;;;8.12;87.46
28927;BME280;16038;47.692;9.400;2023-04-25T01:57:09;96059.31;;;8.11;86.06
28927;BME280;16038;47.692;9.400;2023-04-25T01:59:34;96057.72;;;8.10;87.27
28927;BME280;16038;47.692;9.400;2023-04-25T02:02:00;96045.41;;;7.93;91.08
28927;BME280;16038;47.692;9.400;2023-04-25T02:04:29;96047.47;;;8.03;92.53
28927;BME280;16038;47.692;9.400;2023-04-25T02:06:54;96051.31;;;7.98;94.41
28927;BME280;16038;47.692;9.400;2023-04-25T02:09:20;96056.00;;;7.98;96.40
28927;BME280;16038;47.692;9.400;2023-04-25T02:11:45;96045.81;;;7.95;99.09
28927;BME280;16038;47.692;9.400;2023-04-25T02:14:10;96039.06;;;7.85;98.81
28927;BME280;16038;47.692;9.400;2023-04-25T02:16:36;96047.00;;;7.71;98.48
28927;BME280;16038;47.692;9.400;2023-04-25T02:19:01;96032.91;;;7.69;100.00
28927;BME280;16038;47.692;9.400;2023-04-25T02:21:26;96040.91;;;7.58;100.00
28927;BME280;16038;47.692;9.400;2023-04-25T02:23:52;96034.38;;;7.39;100.00
28927;BME280;16038;47.692;9.400;2023-04-25T02:26:17;96032.97;;;7.26;100.00
28927;BME280;16038;47.692;9.400;2023-04-25T02:28:42;96024.53;;;7.12;100.00
28927;BME280;16038;47.692;9.400;2023-04-25T02:31:08;96035.84;;;6.94;100.00
28927;BME280;16038;47.692;9.400;2023-04-25T02:33:33;96032.22;;;6.86;100.00
28927;BME280;16038;47.692;9.400;2023-04-25T02:35:59;96025.03;;;6.59;100.00
28927;BME280;16038;47.692;9.400;2023-04-25T02:38:24;96034.13;;;6.47;100.00
28927;BME280;16038;47.692;9.400;2023-04-25T02:40:50;96029.09;;;6.49;100.00
28927;BME280;16038;47.692;9.400;2023-04-25T02:43:15;96036.97;;;6.35;100.00
28927;BME280;16038;47.692;9.400;2023-04-25T02:45:41;96033.47;;;6.34;100.00
28927;BME280;16038;47.692;9.400;2023-04-25T02:48:06;96036.44;;;6.29;100.00
28927;BME280;16038;47.692;9.400;2023-04-25T02:50:31;96037.50;;;6.24;100.00
28927;BME280;16038;47.692;9.400;2023-04-25T02:52:57;96038.00;;;6.30;100.00
28927;BME280;16038;47.692;9.400;2023-04-25T02:55:22;96039.78;;;6.22;100.00
28927;BME280;16038;47.692;9.400;2023-04-25T02:57:47;96033.25;;;5.91;100.00
28927;BME280;16038;47.692;9.400;2023-04-25T03:00:12;96036.56;;;5.85;100.00
28927;BME280;16038;47.692;9.400;2023-04-25T03:02:39;96036.03;;;5.95;100.00
28927;BME280;16038;47.692;9.400;2023-04-25T03:05:04;96031.66;;;5.90;100.00
28927;BME280;16038;47.692;9.400;2023-04-25T03:07:29;96029.75;;;5.59;100.00
28927;BME280;16038;47.692;9.400;2023-04-25T03:09:55;96027.28;;;5.54;100.00
28927;BME280;16038;47.692;9.400;2023-04-25T03:12:21;96034.38;;;5.43;100.00
28927;BME280;16038;47.692;9.400;2023-04-25T03:14:46;96020.44;;;5.28;100.00
28927;BME280;16038;47.692;9.400;2023-04-25T03:17:12;96028.50;;;5.25;100.00
28927;BME280;16038;47.692;9.400;2023-04-25T03:19:37;96032.41;;;5.11;100.00
28927;BME280;16038;47.692;9.400;2023-04-25T03:22:02;96026.63;;;4.97;100.00
28927;BME280;16038;47.692;9.400;2023-04-25T03:24:28;96021.91;;;4.82;100.00
28927;BME280;16038;47.692;9.400;2023-04-25T03:26:53;96022.50;;;4.75;100.00
28927;BME280;16038;47.692;9.400;2023-04-25T03:29:18;96024.66;;;4.69;100.00
28927;BME280;16038;47.692;9.400;2023-04-25T03:31:44;96020.19;;;4.61;100.00
28927;BME280;16038;47.692;9.400;2023-04-25T03:34:09;96023.94;;;4.56;100.00
28927;BME280;16038;47.692;9.400;2023-04-25T03:36:34;96028.66;;;4.59;100.00
28927;BME280;16038;47.692;9.400;2023-04-25T03:39:00;96027.22;;;4.50;100.00
28927;BME280;16038;47.692;9.400;2023-04-25T03:41:25;96023.19;;;4.44;100.00
28927;BME280;16038;47.692;9.400;2023-04-25T03:43:50;96023.97;;;4.44;100.00
28927;BME280;16038;47.692;9.400;2023-04-25T03:46:16;96025.78;;;4.40;100.00
28927;BME280;16038;47.692;9.400;2023-04-25T03:48:41;96026.47;;;4.37;100.00
28927;BME280;16038;47.692;9.400;2023-04-25T03:51:06;96028.53;;;4.28;100.00
28927;BME280;16038;47.692;9.400;2023-04-25T03:53:31;96024.69;;;4.29;100.00
28927;BME280;16038;47.692;9.400;2023-04-25T03:55:57;96025.59;;;4.08;100.00
28927;BME280;16038;47.692;9.400;2023-04-25T03:58:22;96025.16;;;4.06;100.00
28927;BME280;16038;47.692;9.400;2023-04-25T04:00:49;96018.59;;;4.19;100.00
28927;BME280;16038;47.692;9.400;2023-04-25T04:03:14;96023.75;;;4.37;100.00
28927;BME280;16038;47.692;9.400;2023-04-25T04:05:39;96013.88;;;4.45;100.00
28927;BME280;16038;47.692;9.400;2023-04-25T04:08:05;96015.75;;;4.28;100.00
28927;BME280;16038;47.692;9.400;2023-04-25T04:10:31;96016.78;;;4.24;100.00
28927;BME280;16038;47.692;9.400;2023-04-25T04:12:56;96023.00;;;4.12;100.00
28927;BME280;16038;47.692;9.400;2023-04-25T04:15:21;96019.84;;;3.97;100.00
28927;BME280;16038;47.692;9.400;2023-04-25T04:17:48;96015.38;;;3.89;100.00
28927;BME280;16038;47.692;9.400;2023-04-25T04:20:14;96009.38;;;3.71;100.00
28927;BME280;16038;47.692;9.400;2023-04-25T04:22:39;96006.34;;;3.60;100.00
28927;BME280;16038;47.692;9.400;2023-04-25T04:25:05;96003.50;;;3.44;100.00
28927;BME280;16038;47.692;9.400;2023-04-25T04:27:31;96008.81;;;3.41;100.00
28927;BME280;16038;47.692;9.400;2023-04-25T04:29:58;95996.16;;;3.45;100.00
28927;BME280;16038;47.692;9.400;2023-04-25T04:32:23;96003.63;;;3.60;100.00
28927;BME280;16038;47.692;9.400;2023-04-25T04:34:50;96004.53;;;3.64;100.00
28927;BME280;16038;47.692;9.400;2023-04-25T04:37:15;96008.59;;;3.58;100.00
28927;BME280;16038;47.692;9.400;2023-04-25T04:39:40;96012.41;;;3.45;100.00
28927;BME280;16038;47.692;9.400;2023-04-25T04:42:06;96012.84;;;3.47;100.00
28927;BME280;16038;47.692;9.400;2023-04-25T04:44:31;96017.94;;;3.49;100.00
28927;BME280;16038;47.692;9.400;2023-04-25T04:47:00;96012.63;;;3.40;100.00
28927;BME280;16038;47.692;9.400;2023-04-25T04:49:25;96007.91;;;3.37;100.00
28927;BME280;16038;47.692;9.400;2023-04-25T04:51:51;96006.91;;;3.54;100.00
28927;BME280;16038;47.692;9.400;2023-04-25T04:54:17;96004.28;;;3.45;100.00
28927;BME280;16038;47.692;9.400;2023-04-25T04:56:42;96012.19;;;3.38;100.00
28927;BME280;16038;47.692;9.400;2023-04-25T04:59:08;96012.28;;;3.41;100.00
28927;BME280;16038;47.692;9.400;2023-04-25T05:01:34;96019.31;;;3.55;100.00
28927;BME280;16038;47.692;9.400;2023-04-25T05:04:01;96015.69;;;3.75;100.00
28927;BME280;16038;47.692;9.400;2023-04-25T05:06:27;96005.53;;;3.85;100.00
28927;BME280;16038;47.692;9.400;2023-04-25T05:08:54;96013.56;;;3.93;100.00
28927;BME280;16038;47.692;9.400;2023-04-25T05:11:19;96009.00;;;4.22;100.00
28927;BME280;16038;47.692;9.400;2023-04-25T05:13:46;96007.94;;;4.39;100.00
28927;BME280;16038;47.692;9.400;2023-04-25T05:16:12;96007.59;;;4.40;100.00
28927;BME280;16038;47.692;9.400;2023-04-25T05:18:38;96009.06;;;5.23;100.00
28927;BME280;16038;47.692;9.400;2023-04-25T05:21:03;96013.28;;;6.00;100.00
28927;BME280;16038;47.692;9.400;2023-04-25T05:23:29;96005.53;;;6.18;100.00
28927;BME280;16038;47.692;9.400;2023-04-25T05:25:55;96010.75;;;6.26;100.00
28927;BME280;16038;47.692;9.400;2023-04-25T05:28:21;96015.47;;;6.29;100.00
28927;BME280;16038;47.692;9.400;2023-04-25T05:30:46;96009.59;;;6.63;100.00
28927;BME280;16038;47.692;9.400;2023-04-25T05:33:11;96010.44;;;7.06;100.00
28927;BME280;16038;47.692;9.400;2023-04-25T05:35:37;96012.81;;;6.68;100.00
28927;BME280;16038;47.692;9.400;2023-04-25T05:38:02;96015.28;;;6.38;100.00
28927;BME280;16038;47.692;9.400;2023-04-25T05:40:27;96014.88;;;6.20;100.00
28927;BME280;16038;47.692;9.400;2023-04-25T05:42:52;96015.78;;;6.08;100.00
28927;BME280;16038;47.692;9.400;2023-04-25T05:45:18;96016.38;;;6.53;100.00
28927;BME280;16038;47.692;9.400;2023-04-25T05:47:43;96013.72;;;6.76;100.00
28927;BME280;16038;47.692;9.400;2023-04-25T05:50:08;96015.63;;;7.15;100.00
28927;BME280;16038;47.692;9.400;2023-04-25T05:52:34;96009.56;;;7.68;100.00
28927;BME280;16038;47.692;9.400;2023-04-25T05:54:59;96012.19;;;8.14;100.00
28927;BME280;16038;47.692;9.400;2023-04-25T05:57:25;96004.69;;;9.28;100.00
28927;BME280;16038;47.692;9.400;2023-04-25T05:59:51;96013.97;;;10.72;94.49
28927;BME280;16038;47.692;9.400;2023-04-25T06:02:17;96011.78;;;11.10;85.84
28927;BME280;16038;47.692;9.400;2023-04-25T06:04:42;96017.75;;;9.46;92.33
28927;BME280;16038;47.692;9.400;2023-04-25T06:07:07;96015.03;;;9.49;94.75
28927;BME280;16038;47.692;9.400;2023-04-25T06:09:33;96014.22;;;8.74;100.00
28927;BME280;16038;47.692;9.400;2023-04-25T06:11:58;96011.16;;;7.95;100.00
28927;BME280;16038;47.692;9.400;2023-04-25T06:14:24;96011.97;;;7.73;100.00
28927;BME280;16038;47.692;9.400;2023-04-25T06:16:49;96015.41;;;7.46;100.00
28927;BME280;16038;47.692;9.400;2023-04-25T06:19:14;96011.56;;;7.71;100.00
28927;BME280;16038;47.692;9.400;2023-04-25T06:21:39;96004.50;;;8.19;100.00
28927;BME280;16038;47.692;9.400;2023-04-25T06:24:05;96000.28;;;9.16;100.00
28927;BME280;16038;47.692;9.400;2023-04-25T06:26:30;96004.16;;;10.67;100.00
28927;BME280;16038;47.692;9.400;2023-04-25T06:28:55;96004.78;;;12.60;81.29
28927;BME280;16038;47.692;9.400;2023-04-25T06:31:21;96001.72;;;13.39;66.18
28927;BME280;16038;47.692;9.400;2023-04-25T06:33:46;96004.50;;;13.28;66.32
28927;BME280;16038;47.692;9.400;2023-04-25T06:36:13;96000.72;;;13.74;59.54
28927;BME280;16038;47.692;9.400;2023-04-25T06:38:38;96011.50;;;13.51;61.13
28927;BME280;16038;47.692;9.400;2023-04-25T06:41:04;96005.13;;;12.73;64.61
28927;BME280;16038;47.692;9.400;2023-04-25T06:43:30;96002.38;;;12.76;65.85
28927;BME280;16038;47.692;9.400;2023-04-25T06:45:58;95997.84;;;13.33;60.60
28927;BME280;16038;47.692;9.400;2023-04-25T06:48:23;95998.97;;;13.95;57.73
28927;BME280;16038;47.692;9.400;2023-04-25T06:50:48;95995.09;;;14.34;55.97
28927;BME280;16038;47.692;9.400;2023-04-25T06:53:14;95997.75;;;14.03;55.14
28927;BME280;16038;47.692;9.400;2023-04-25T06:55:39;95996.63;;;14.80;54.25
28927;BME280;16038;47.692;9.400;2023-04-25T06:58:05;95986.13;;;16.11;50.67
28927;BME280;16038;47.692;9.400;2023-04-25T07:00:30;95990.81;;;17.02;47.27
28927;BME280;16038;47.692;9.400;2023-04-25T07:02:57;95986.44;;;16.60;46.89
28927;BME280;16038;47.692;9.400;2023-04-25T07:05:22;95994.53;;;16.28;47.72
28927;BME280;16038;47.692;9.400;2023-04-25T07:07:48;95994.94;;;16.02;47.35
28927;BME280;16038;47.692;9.400;2023-04-25T07:10:13;95997.13;;;15.33;49.80
28927;BME280;16038;47.692;9.400;2023-04-25T07:12:38;95998.41;;;14.56;50.10
28927;BME280;16038;47.692;9.400;2023-04-25T07:15:04;95999.66;;;13.54;53.88
28927;BME280;16038;47.692;9.400;2023-04-25T07:17:31;95998.84;;;12.79;55.79
28927;BME280;16038;47.692;9.400;2023-04-25T07:19:56;95995.84;;;12.16;59.88
28927;BME280;16038;47.692;9.400;2023-04-25T07:22:22;96000.94;;;11.71;61.36
28927;BME280;16038;47.692;9.400;2023-04-25T07:24:47;95998.53;;;11.34;65.26
28927;BME280;16038;47.692;9.400;2023-04-25T07:27:13;95998.50;;;11.30;65.18
28927;BME280;16038;47.692;9.400;2023-04-25T07:29:39;95993.81;;;11.27;64.91
28927;BME280;16038;47.692;9.400;2023-04-25T07:32:04;96002.78;;;11.06;67.41
28927;BME280;16038;47.692;9.400;2023-04-25T07:34:30;96004.56;;;10.73;70.18
28927;BME280;16038;47.692;9.400;2023-04-25T07:36:55;96006.00;;;10.45;74.35
28927;BME280;16038;47.692;9.400;2023-04-25T07:39:20;96013.97;;;10.09;81.92
28927;BME280;16038;47.692;9.400;2023-04-25T07:41:46;96010.34;;;9.94;87.69
28927;BME280;16038;47.692;9.400;2023-04-25T07:44:11;96013.88;;;9.99;88.24
28927;BME280;16038;47.692;9.400;2023-04-25T07:46:36;96023.28;;;9.53;86.87
28927;BME280;16038;47.692;9.400;2023-04-25T07:49:02;96027.81;;;9.42;92.39
28927;BME280;16038;47.692;9.400;2023-04-25T07:51:27;96029.13;;;9.14;98.49
28927;BME280;16038;47.692;9.400;2023-04-25T07:53:52;96036.94;;;8.82;100.00
28927;BME280;16038;47.692;9.400;2023-04-25T07:56:18;96041.72;;;8.08;100.00
28927;BME280;16038;47.692;9.400;2023-04-25T07:58:43;96040.72;;;7.70;100.00
28927;BME280;16038;47.692;9.400;2023-04-25T08:01:09;96046.97;;;7.47;100.00
28927;BME280;16038;47.692;9.400;2023-04-25T08:03:34;96052.38;;;7.24;100.00
28927;BME280;16038;47.692;9.400;2023-04-25T08:05:59;96059.66;;;7.17;100.00
28927;BME280;16038;47.692;9.400;2023-04-25T08:08:25;96052.91;;;7.11;100.00
28927;BME280;16038;47.692;9.400;2023-04-25T08:10:50;96054.41;;;6.88;100.00
28927;BME280;16038;47.692;9.400;2023-04-25T08:13:16;96073.44;;;6.69;100.00
28927;BME280;16038;47.692;9.400;2023-04-25T08:15:41;96063.84;;;6.95;100.00
28927;BME280;16038;47.692;9.400;2023-04-25T08:18:06;96069.16;;;7.07;100.00
28927;BME280;16038;47.692;9.400;2023-04-25T08:20:32;96072.16;;;7.02;100.00
28927;BME280;16038;47.692;9.400;2023-04-25T08:22:57;96072.25;;;7.25;100.00
28927;BME280;16038;47.692;9.400;2023-04-25T08:25:22;96076.13;;;7.24;100.00
28927;BME280;16038;47.692;9.400;2023-04-25T08:27:48;96081.72;;;7.31;100.00
28927;BME280;16038;47.692;9.400;2023-04-25T08:30:13;96080.63;;;7.36;100.00
28927;BME280;16038;47.692;9.400;2023-04-25T08:32:39;96087.91;;;7.51;100.00
28927;BME280;16038;47.692;9.400;2023-04-25T08:35:04;96087.97;;;7.55;100.00
28927;BME280;16038;47.692;9.400;2023-04-25T08:37:30;96095.66;;;7.72;100.00
28927;BME280;16038;47.692;9.400;2023-04-25T08:39:55;96091.50;;;7.78;100.00
28927;BME280;16038;47.692;9.400;2023-04-25T08:42:21;96102.41;;;8.01;100.00
28927;BME280;16038;47.692;9.400;2023-04-25T08:44:47;96102.66;;;8.16;100.00
28927;BME280;16038;47.692;9.400;2023-04-25T08:47:13;96101.91;;;8.19;100.00
28927;BME280;16038;47.692;9.400;2023-04-25T08:49:38;96105.09;;;7.98;100.00
28927;BME280;16038;47.692;9.400;2023-04-25T08:52:04;96104.53;;;7.89;100.00
28927;BME280;16038;47.692;9.400;2023-04-25T08:54:31;96103.13;;;7.98;100.00
28927;BME280;16038;47.692;9.400;2023-04-25T08:56:57;96116.00;;;7.98;100.00
28927;BME280;16038;47.692;9.400;2023-04-25T08:59:23;96118.59;;;7.91;100.00
28927;BME280;16038;47.692;9.400;2023-04-25T09:01:49;96124.78;;;7.88;100.00
28927;BME280;16038;47.692;9.400;2023-04-25T09:04:14;96118.91;;;7.85;100.00
28927;BME280;16038;47.692;9.400;2023-04-25T09:06:40;96121.56;;;8.05;100.00
28927;BME280;16038;47.692;9.400;2023-04-25T09:09:06;96114.16;;;8.29;100.00
28927;BME280;16038;47.692;9.400;2023-04-25T09:11:32;96116.81;;;8.48;100.00
28927;BME280;16038;47.692;9.400;2023-04-25T09:14:13;96126.50;;;8.46;100.00
28927;BME280;16038;47.692;9.400;2023-04-25T09:16:59;96134.03;;;8.29;100.00
28927;BME280;16038;47.692;9.400;2023-04-25T09:19:29;96136.56;;;7.95;100.00
28927;BME280;16038;47.692;9.400;2023-04-25T09:21:55;96144.66;;;7.45;100.00
28927;BME280;16038;47.692;9.400;2023-04-25T09:27:09;96155.13;;;7.24;100.00
28927;BME280;16038;47.692;9.400;2023-04-25T09:29:36;96153.53;;;7.23;100.00
28927;BME280;16038;47.692;9.400;2023-04-25T09:34:40;96158.75;;;7.12;100.00
28927;BME280;16038;47.692;9.400;2023-04-25T09:37:07;96175.13;;;6.96;100.00
28927;BME280;16038;47.692;9.400;2023-04-25T09:39:33;96176.59;;;7.10;100.00
28927;BME280;16038;47.692;9.400;2023-04-25T09:41:58;96178.75;;;7.39;100.00
28927;BME280;16038;47.692;9.400;2023-04-25T09:44:24;96180.50;;;7.47;100.00
28927;BME280;16038;47.692;9.400;2023-04-25T09:46:49;96174.97;;;7.63;100.00
28927;BME280;16038;47.692;9.400;2023-04-25T09:49:19;96179.53;;;7.79;100.00
28927;BME280;16038;47.692;9.400;2023-04-25T09:51:54;96177.31;;;8.08;100.00
28927;BME280;16038;47.692;9.400;2023-04-25T09:54:20;96170.53;;;8.21;100.00
28927;BME280;16038;47.692;9.400;2023-04-25T09:56:45;96181.94;;;8.27;100.00
28927;BME280;16038;47.692;9.400;2023-04-25T09:59:13;96177.50;;;8.41;100.00
28927;BME280;16038;47.692;9.400;2023-04-25T10:01:39;96172.97;;;9.03;100.00
28927;BME280;16038;47.692;9.400;2023-04-25T10:04:05;96175.28;;;9.31;100.00
28927;BME280;16038;47.692;9.400;2023-04-25T10:06:31;96167.91;;;9.31;100.00
28927;BME280;16038;47.692;9.400;2023-04-25T10:08:59;96181.06;;;8.69;100.00
28927;BME280;16038;47.692;9.400;2023-04-25T10:11:25;96186.81;;;8.87;100.00
28927;BME280;16038;47.692;9.400;2023-04-25T10:13:51;96180.94;;;8.38;100.00
28927;BME280;16038;47.692;9.400;2023-04-25T10:16:17;96183.50;;;8.74;100.00
28927;BME280;16038;47.692;9.400;2023-04-25T10:18:42;96182.31;;;8.75;100.00
28927;BME280;16038;47.692;9.400;2023-04-25T10:21:08;96188.59;;;8.29;100.00
28927;BME280;16038;47.692;9.400;2023-04-25T10:23:33;96184.19;;;8.44;100.00
28927;BME280;16038;47.692;9.400;2023-04-25T10:25:59;96184.16;;;8.21;100.00
28927;BME280;16038;47.692;9.400;2023-04-25T10:28:25;96180.22;;;8.41;100.00
28927;BME280;16038;47.692;9.400;2023-04-25T10:31:00;96173.06;;;8.33;100.00
28927;BME280;16038;47.692;9.400;2023-04-25T10:33:33;96178.72;;;8.44;100.00
28927;BME280;16038;47.692;9.400;2023-04-25T10:36:08;96187.53;;;8.34;100.00
28927;BME280;16038;47.692;9.400;2023-04-25T10:38:33;96184.03;;;8.14;100.00
28927;BME280;16038;47.692;9.400;2023-04-25T10:41:05;96192.03;;;8.03;100.00
28927;BME280;16038;47.692;9.400;2023-04-25T10:46:26;96192.03;;;8.26;100.00
28927;BME280;16038;47.692;9.400;2023-04-25T10:48:53;96184.47;;;8.39;100.00
28927;BME280;16038;47.692;9.400;2023-04-25T10:51:26;96193.03;;;8.37;100.00
28927;BME280;16038;47.692;9.400;2023-04-25T10:56:20;96197.28;;;8.58;100.00
28927;BME280;16038;47.692;9.400;2023-04-25T10:58:46;96197.72;;;8.87;100.00
28927;BME280;16038;47.692;9.400;2023-04-25T11:01:12;96203.19;;;9.13;100.00
28927;BME280;16038;47.692;9.400;2023-04-25T11:03:39;96199.19;;;9.07;100.00
28927;BME280;16038;47.692;9.400;2023-04-25T11:06:06;96204.75;;;9.14;100.00
28927;BME280;16038;47.692;9.400;2023-04-25T11:08:49;96199.06;;;9.27;100.00
28927;BME280;16038;47.692;9.400;2023-04-25T11:11:18;96199.09;;;9.30;100.00
28927;BME280;16038;47.692;9.400;2023-04-25T11:13:44;96209.34;;;9.37;100.00
28927;BME280;16038;47.692;9.400;2023-04-25T11:16:09;96210.22;;;9.45;100.00
28927;BME280;16038;47.692;9.400;2023-04-25T11:18:35;96210.97;;;9.42;100.00
28927;BME280;16038;47.692;9.400;2023-04-25T11:21:00;96200.13;;;9.49;100.00
28927;BME280;16038;47.692;9.400;2023-04-25T11:23:27;96202.06;;;10.16;100.00
28927;BME280;16038;47.692;9.400;2023-04-25T11:25:53;96192.13;;;10.38;100.00
28927;BME280;16038;47.692;9.400;2023-04-25T11:28:22;96199.50;;;10.79;100.00
28927;BME280;16038;47.692;9.400;2023-04-25T11:30:51;96193.75;;;11.02;100.00
28927;BME280;16038;47.692;9.400;2023-04-25T11:33:17;96197.06;;;11.25;98.82
28927;BME280;16038;47.692;9.400;2023-04-25T11:35:42;96198.16;;;11.14;96.28
28927;BME280;16038;47.692;9.400;2023-04-25T11:38:07;96196.31;;;11.36;95.94
28927;BME280;16038;47.692;9.400;2023-04-25T11:40:33;96198.59;;;11.23;98.21
28927;BME280;16038;47.692;9.400;2023-04-25T11:43:01;96190.81;;;11.32;100.00
28927;BME280;16038;47.692;9.400;2023-04-25T11:45:27;96188.34;;;11.09;100.00
28927;BME280;16038;47.692;9.400;2023-04-25T11:47:54;96189.72;;;11.44;99.42
28927;BME280;16038;47.692;9.400;2023-04-25T11:50:19;96188.44;;;11.27;97.84
28927;BME280;16038;47.692;9.400;2023-04-25T11:52:45;96193.69;;;10.91;100.00
28927;BME280;16038;47.692;9.400;2023-04-25T11:57:39;96189.94;;;12.01;95.76
28927;BME280;16038;47.692;9.400;2023-04-25T12:00:15;96193.16;;;12.57;92.05
28927;BME280;16038;47.692;9.400;2023-04-25T12:02:42;96202.56;;;12.71;90.48
28927;BME280;16038;47.692;9.400;2023-04-25T12:05:08;96204.94;;;12.72;82.50
28927;BME280;16038;47.692;9.400;2023-04-25T12:07:34;96209.25;;;12.52;81.58
28927;BME280;16038;47.692;9.400;2023-04-25T12:10:04;96220.06;;;11.87;84.64
28927;BME280;16038;47.692;9.400;2023-04-25T12:12:33;96230.88;;;11.51;85.37
28927;BME280;16038;47.692;9.400;2023-04-25T12:15:07;96225.06;;;10.97;89.50
28927;BME280;16038;47.692;9.400;2023-04-25T12:17:33;96214.09;;;10.45;93.64
28927;BME280;16038;47.692;9.400;2023-04-25T12:20:06;96224.47;;;10.29;97.75
28927;BME280;16038;47.692;9.400;2023-04-25T12:22:32;96238.03;;;10.56;98.99
28927;BME280;16038;47.692;9.400;2023-04-25T12:24:58;96233.97;;;10.83;99.10
28927;BME280;16038;47.692;9.400;2023-04-25T12:27:23;96227.47;;;10.54;99.85
28927;BME280;16038;47.692;9.400;2023-04-25T12:29:52;96232.03;;;10.39;97.79
28927;BME280;16038;47.692;9.400;2023-04-25T12:32:17;96230.50;;;10.08;99.69
28927;BME280;16038;47.692;9.400;2023-04-25T12:34:43;96230.88;;;10.06;98.43
28927;BME280;16038;47.692;9.400;2023-04-25T12:37:09;96241.84;;;9.72;100.00
28927;BME280;16038;47.692;9.400;2023-04-25T12:39:35;96249.13;;;9.34;100.00
28927;BME280;16038;47.692;9.400;2023-04-25T12:42:01;96238.50;;;9.26;100.00
28927;BME280;16038;47.692;9.400;2023-04-25T12:44:27;96245.56;;;9.30;100.00
28927;BME280;16038;47.692;9.400;2023-04-25T12:46:52;96247.34;;;9.76;100.00
28927;BME280;16038;47.692;9.400;2023-04-25T12:49:18;96239.16;;;9.76;100.00
28927;BME280;16038;47.692;9.400;2023-04-25T12:51:43;96245.41;;;10.10;100.00
28927;BME280;16038;47.692;9.400;2023-04-25T12:54:09;96245.47;;;10.18;100.00
28927;BME280;16038;47.692;9.400;2023-04-25T12:56:35;96240.41;;;10.57;100.00
28927;BME280;16038;47.692;9.400;2023-04-25T12:59:00;96240.13;;;11.28;100.00
28927;BME280;16038;47.692;9.400;2023-04-25T13:01:27;96236.84;;;11.67;94.87
28927;BME280;16038;47.692;9.400;2023-04-25T13:03:53;96238.34;;;11.54;92.67
28927;BME280;16038;47.692;9.400;2023-04-25T13:06:18;96233.47;;;11.99;89.62
28927;BME280;16038;47.692;9.400;2023-04-25T13:08:44;96223.72;;;12.20;85.65